Big Bear Station Historical Data
Daily Summary for November 7, 2017 Units:  English    Metric   Both
« Previous Day
Next Day »
Daily Weekly Monthly Yearly Custom
  High: Low: Average:
Temperature: 56.7 °F 36.1 °F 46.2 °F
Dew Point: 42.6 °F 34.3 °F 40 °F
Humidity: 93 % 54 % 80 %
Wind Speed: 5.8 mph 0.0 mph 1.4 mph
Wind Gust: -999.0 mph - -
Wind:- - West
Pressure: 30.21 in 23.54 in -
Precipitation: 0.00 in    
Historical Graphs
 
 
Tabular Data for November 7, 2017
Time Temperature Dew Point Pressure Wind Wind Speed Wind Gust Humidity Rainfall Rate (Hourly)
00:08 44.2 °F 40.6 °F 23.56 in WNW 1.7 mph -999.0 mph 87 % 0 in
00:23 44.2 °F 40.6 °F 23.55 in Calm   -999.0 mph 87 % 0 in
00:38 44.2 °F 40.6 °F 23.55 in Calm   -999.0 mph 87 % 0 in
00:53 44.4 °F 40.8 °F 23.56 in Calm   -999.0 mph 87 % 0 in
01:09 44.4 °F 40.8 °F 23.56 in SSE 2.7 mph -999.0 mph 87 % 0 in
01:24 44.6 °F 41.0 °F 23.55 in WSW 2.7 mph -999.0 mph 87 % 0 in
01:39 44.8 °F 41.2 °F 23.55 in ENE 3.2 mph -999.0 mph 87 % 0 in
01:54 45.0 °F 41.4 °F 23.56 in Calm   -999.0 mph 87 % 0 in
02:09 44.8 °F 41.2 °F 23.55 in West 2.2 mph -999.0 mph 87 % 0 in
02:25 44.8 °F 41.2 °F 23.55 in WNW 2.7 mph -999.0 mph 87 % 0 in
02:40 44.4 °F 40.8 °F 23.55 in Calm   -999.0 mph 87 % 0 in
02:55 43.7 °F 40.1 °F 23.55 in Calm   -999.0 mph 87 % 0 in
03:10 43.0 °F 39.7 °F 23.55 in Calm   -999.0 mph 88 % 0 in
03:25 42.4 °F 39.4 °F 23.55 in Calm   -999.0 mph 89 % 0 in
03:41 41.9 °F 38.9 °F 23.55 in Calm   -999.0 mph 89 % 0 in
03:56 41.5 °F 38.8 °F 23.55 in Calm   -999.0 mph 90 % 0 in
04:11 41.4 °F 39.0 °F 23.55 in Calm   -999.0 mph 91 % 0 in
04:26 41.2 °F 38.8 °F 23.55 in Calm   -999.0 mph 91 % 0 in
04:41 41.2 °F 38.8 °F 23.56 in Calm   -999.0 mph 91 % 0 in
04:57 41.2 °F 38.8 °F 23.56 in Calm   -999.0 mph 91 % 0 in
05:12 41.5 °F 38.8 °F 23.56 in Calm   -999.0 mph 90 % 0 in
05:27 41.9 °F 39.2 °F 23.56 in NE 4.2 mph -999.0 mph 90 % 0 in
05:42 42.1 °F 39.1 °F 23.56 in NW 2.7 mph -999.0 mph 89 % 0 in
05:57 42.3 °F 39.0 °F 23.56 in Calm   -999.0 mph 88 % 0 in
06:28 42.1 °F 38.8 °F 23.57 in WNW 1.7 mph -999.0 mph 88 % 0 in
06:43 42.1 °F 38.8 °F 23.57 in Calm   -999.0 mph 88 % 0 in
06:58 42.1 °F 38.8 °F 23.58 in Calm   -999.0 mph 88 % 0 in
07:14 42.4 °F 39.1 °F 23.58 in Calm   -999.0 mph 88 % 0 in
07:29 43.0 °F 39.7 °F 23.58 in Calm   -999.0 mph 88 % 0 in
07:44 43.5 °F 39.6 °F 23.59 in Calm   -999.0 mph 86 % 0 in
08:14 45.9 °F 41.0 °F 23.59 in Calm   -999.0 mph 83 % 0 in
08:30 46.4 °F 40.9 °F 23.59 in SW 1.1 mph -999.0 mph 81 % 0 in
08:45 47.5 °F 41.3 °F 23.59 in ENE 1.7 mph -999.0 mph 79 % 0 in
09:00 48.4 °F 41.5 °F 23.59 in Calm   -999.0 mph 77 % 0 in
09:15 48.2 °F 41.3 °F 23.59 in Calm   -999.0 mph 77 % 0 in
09:30 48.2 °F 41.3 °F 23.59 in SSW 1.7 mph -999.0 mph 77 % 0 in
09:46 49.5 °F 42.6 °F 23.59 in NNW 2.7 mph -999.0 mph 77 % 0 in
10:01 51.1 °F 41.7 °F 23.59 in NNW 3.7 mph -999.0 mph 70 % 0 in
10:16 52.5 °F 41.9 °F 23.59 in NW 3.7 mph -999.0 mph 67 % 0 in
10:31 53.8 °F 41.5 °F 23.59 in NNE 5.8 mph -999.0 mph 63 % 0 in
10:46 53.6 °F 42.1 °F 23.58 in WNW 2.7 mph -999.0 mph 65 % 0 in
11:02 54.5 °F 42.6 °F 23.58 in North 2.2 mph -999.0 mph 64 % 0 in
11:18 55.8 °F 41.7 °F 23.58 in WNW 2.2 mph -999.0 mph 59 % 0 in
11:33 55.8 °F 42.6 °F 23.57 in NW 2.7 mph -999.0 mph 61 % 0 in
11:48 56.3 °F 42.2 °F 23.57 in NW 4.7 mph -999.0 mph 59 % 0 in
12:03 56.7 °F 41.2 °F 23.56 in WNW 2.2 mph -999.0 mph 56 % 0 in
12:18 56.7 °F 42.1 °F 23.56 in WNW 3.7 mph -999.0 mph 58 % 0 in
12:34 55.4 °F 40.9 °F 23.55 in SE 2.2 mph -999.0 mph 58 % 0 in
12:49 56.5 °F 40.1 °F 23.55 in NW 3.2 mph -999.0 mph 54 % 0 in
13:04 56.5 °F 41.0 °F 23.54 in NNW 5.8 mph -999.0 mph 56 % 0 in
13:20 55.2 °F 40.7 °F 23.54 in North 3.2 mph -999.0 mph 58 % 0 in
13:35 55.2 °F 40.2 °F 23.54 in WNW 3.2 mph -999.0 mph 57 % 0 in
13:50 55.4 °F 40.4 °F 23.55 in Calm   -999.0 mph 57 % 0 in
14:20 54.5 °F 41.7 °F 23.55 in NW 3.7 mph -999.0 mph 62 % 0 in
14:36 53.6 °F 41.3 °F 23.55 in NW 2.7 mph -999.0 mph 63 % 0 in
14:51 53.2 °F 40.5 °F 23.55 in NW 2.2 mph -999.0 mph 62 % 0 in
15:07 52.7 °F 38.8 °F 23.55 in NW 4.2 mph -999.0 mph 59 % 0 in
15:22 52.5 °F 39.4 °F 23.54 in NW 1.7 mph -999.0 mph 61 % 0 in
15:38 52.2 °F 40.4 °F 23.54 in WNW 2.2 mph -999.0 mph 64 % 0 in
15:53 51.4 °F 41.9 °F 23.54 in NW 2.2 mph -999.0 mph 70 % 0 in
16:08 50.7 °F 41.3 °F 23.54 in Calm   -999.0 mph 70 % 0 in
16:24 49.8 °F 42.5 °F 23.54 in West 3.2 mph -999.0 mph 76 % 0 in
16:39 48.9 °F 42.3 °F 23.54 in West 4.7 mph -999.0 mph 78 % 0 in
16:54 48.2 °F 42.0 °F 23.55 in WNW 3.7 mph -999.0 mph 79 % 0 in
17:09 47.3 °F 42.1 °F 23.55 in NW 2.2 mph -999.0 mph 82 % 0 in
17:24 46.8 °F 41.9 °F 23.55 in ENE 1.1 mph -999.0 mph 83 % 0 in
17:40 46.6 °F 41.7 °F 23.56 in Calm   -999.0 mph 83 % 0 in
17:55 46.0 °F 41.4 °F 23.56 in SSE 2.2 mph -999.0 mph 84 % 0 in
18:11 45.7 °F 41.4 °F 23.56 in Calm   -999.0 mph 85 % 0 in
18:26 45.9 °F 41.6 °F 23.56 in South 2.2 mph -999.0 mph 85 % 0 in
18:41 45.9 °F 41.3 °F 30.19 in NW 1.7 mph -999.0 mph 84 % 0 in
18:56 45.7 °F 41.4 °F 30.19 in Calm   -999.0 mph 85 % 0 in
19:27 43.9 °F 40.3 °F 30.19 in Calm   -999.0 mph 87 % 0 in
19:42 43.3 °F 39.7 °F 30.20 in Calm   -999.0 mph 87 % 0 in
19:57 42.8 °F 39.5 °F 30.19 in Calm   -999.0 mph 88 % 0 in
20:12 42.1 °F 38.8 °F 30.20 in Calm   -999.0 mph 88 % 0 in
20:27 41.5 °F 38.2 °F 30.21 in Calm   -999.0 mph 88 % 0 in
20:43 40.8 °F 37.5 °F 30.21 in Calm   -999.0 mph 88 % 0 in
20:58 40.5 °F 37.5 °F 30.21 in Calm   -999.0 mph 89 % 0 in
21:13 39.7 °F 36.4 °F 30.20 in Calm   -999.0 mph 88 % 0 in
21:28 38.8 °F 35.8 °F 30.20 in Calm   -999.0 mph 89 % 0 in
21:43 38.8 °F 35.8 °F 30.20 in Calm   -999.0 mph 89 % 0 in
21:59 38.1 °F 35.7 °F 30.20 in Calm   -999.0 mph 91 % 0 in
22:15 37.8 °F 35.7 °F 30.20 in Calm   -999.0 mph 92 % 0 in
22:30 37.8 °F 35.7 °F 30.20 in Calm   -999.0 mph 92 % 0 in
22:45 37.4 °F 35.3 °F 30.20 in Calm   -999.0 mph 92 % 0 in
23:15 36.9 °F 35.1 °F 30.20 in Calm   -999.0 mph 93 % 0 in
23:31 36.3 °F 34.5 °F 30.20 in Calm   -999.0 mph 93 % 0 in
23:46 36.1 °F 34.3 °F 30.20 in Calm   -999.0 mph 93 % 0 in
Big Bear CA Weather
Compliments of Weather Underground - 1.5 mb